Aeroporto :
LOGIN :

Iscrizione | Disclaimer

   EN    FR    IT 

 










Sommario :    VFR   VFR Marginale   IFR   IFR Intensivo   IFR Molto Intensivo
Visibilità : 
Base nubi : 
>= 8 km
>= 3000ft
5 / 8 km
1000 / 3000 ft
1500m / 5 km
500 / 1000 ft
800 / 1500m
200 / 500 ft
< 800m
< 200 ft
Simboli :   Temporali  Nebbia  Neve Forte  Precipitazioni Forti  Vento > 20 kt
SIGMETs :   Varie  Temporali  Ghiacco  Turbolenza  Onda orograficha  Ceneri Vulcaniche






- Altitudine del aeroporto : 59 ft
- Codice IATA : TSF


LIPH - Treviso

ULTIMO METAR :
  • 160650Z VRB01KT 9999 SCT040 BKN080 06/05 Q1020

METARs OBSOLETI :
  • 160620Z 35003KT 9999 FEW040 BKN080 06/04 Q1020
  • 160550Z AUTO VRB01KT 9999 FEW044/// OVC081/// 05/04 Q1020
  • 160520Z AUTO 32003KT 250V360 9999 FEW044/// OVC081/// 06/05 Q1020
  • 160450Z AUTO VRB01KT 9999 OVC080/// 05/04 Q1020
  • 160420Z AUTO VRB01KT 9999 OVC081/// 05/05 Q1020

TAF TAF LIPH
Valido dal 16 a 06 ore il 17 a 06 ore UTC


160500Z 1606/1706 VRB05KT 7000 NSC



MetMap, La meteo Aeronautica in un colpo d'occhio ! - Copyright ORBIFLY Dicembre 2007 - Disclaimer

ORBIFLY MET'MAP TEAM :

Programmazione e sviluppo : Alexandra Zaïnal
Concezione : Baudouin d'Aumeries
Aiuto per la programmazione : Marc-Olivier Méhu
Supporto tecnico e logistico : Manuel Goepfert
Aiuto per la traduzione : Arnaldo La Scala

Contatto : metmap@orbifly.com




FONTI E CREDITI :

   NOAA